sensor_id;sensor_type;location;lat;lon;timestamp;P1;durP1;ratioP1;P2;durP2;ratioP2
70997;SDS011;58663;52.040;4.634;2023-02-28T00:01:26;7.03;;;1.58;;
70997;SDS011;58663;52.040;4.634;2023-02-28T00:03:52;2.97;;;1.48;;
70997;SDS011;58663;52.040;4.634;2023-02-28T00:06:17;3.08;;;1.52;;
70997;SDS011;58663;52.040;4.634;2023-02-28T00:08:43;2.92;;;1.50;;
70997;SDS011;58663;52.040;4.634;2023-02-28T00:11:09;1.50;;;1.40;;
70997;SDS011;58663;52.040;4.634;2023-02-28T00:13:36;12.48;;;2.15;;
70997;SDS011;58663;52.040;4.634;2023-02-28T00:16:04;2.90;;;1.73;;
70997;SDS011;58663;52.040;4.634;2023-02-28T00:18:31;3.42;;;1.42;;
70997;SDS011;58663;52.040;4.634;2023-02-28T00:20:57;4.43;;;1.38;;
70997;SDS011;58663;52.040;4.634;2023-02-28T00:23:23;5.00;;;1.48;;
70997;SDS011;58663;52.040;4.634;2023-02-28T00:25:49;3.92;;;1.55;;
70997;SDS011;58663;52.040;4.634;2023-02-28T00:28:15;2.65;;;1.30;;
70997;SDS011;58663;52.040;4.634;2023-02-28T00:30:40;4.45;;;1.60;;
70997;SDS011;58663;52.040;4.634;2023-02-28T00:33:06;4.50;;;1.77;;
70997;SDS011;58663;52.040;4.634;2023-02-28T00:35:31;6.53;;;1.52;;
70997;SDS011;58663;52.040;4.634;2023-02-28T00:37:56;2.72;;;1.30;;
70997;SDS011;58663;52.040;4.634;2023-02-28T00:40:22;3.38;;;1.65;;
70997;SDS011;58663;52.040;4.634;2023-02-28T00:42:47;5.43;;;1.63;;
70997;SDS011;58663;52.040;4.634;2023-02-28T00:45:12;4.68;;;1.55;;
70997;SDS011;58663;52.040;4.634;2023-02-28T00:47:38;1.70;;;1.50;;
70997;SDS011;58663;52.040;4.634;2023-02-28T00:50:03;2.08;;;1.50;;
70997;SDS011;58663;52.040;4.634;2023-02-28T00:52:29;3.78;;;1.38;;
70997;SDS011;58663;52.040;4.634;2023-02-28T00:54:54;2.65;;;1.33;;
70997;SDS011;58663;52.040;4.634;2023-02-28T00:57:20;2.70;;;1.73;;
70997;SDS011;58663;52.040;4.634;2023-02-28T00:59:45;2.30;;;1.70;;
70997;SDS011;58663;52.040;4.634;2023-02-28T01:02:10;2.58;;;1.58;;
70997;SDS011;58663;52.040;4.634;2023-02-28T01:04:36;2.30;;;1.60;;
70997;SDS011;58663;52.040;4.634;2023-02-28T01:07:01;2.78;;;1.63;;
70997;SDS011;58663;52.040;4.634;2023-02-28T01:09:26;1.95;;;1.30;;
70997;SDS011;58663;52.040;4.634;2023-02-28T01:11:52;3.50;;;1.40;;
70997;SDS011;58663;52.040;4.634;2023-02-28T01:14:17;2.67;;;1.67;;
70997;SDS011;58663;52.040;4.634;2023-02-28T01:16:43;3.58;;;1.65;;
70997;SDS011;58663;52.040;4.634;2023-02-28T01:19:08;3.20;;;1.77;;
70997;SDS011;58663;52.040;4.634;2023-02-28T01:21:34;4.07;;;1.58;;
70997;SDS011;58663;52.040;4.634;2023-02-28T01:24:00;3.95;;;1.65;;
70997;SDS011;58663;52.040;4.634;2023-02-28T01:26:26;3.90;;;1.40;;
70997;SDS011;58663;52.040;4.634;2023-02-28T01:28:52;2.90;;;1.48;;
70997;SDS011;58663;52.040;4.634;2023-02-28T01:31:18;2.25;;;1.67;;
70997;SDS011;58663;52.040;4.634;2023-02-28T01:33:44;2.28;;;1.52;;
70997;SDS011;58663;52.040;4.634;2023-02-28T01:36:11;6.05;;;1.45;;
70997;SDS011;58663;52.040;4.634;2023-02-28T01:38:47;5.47;;;1.63;;
70997;SDS011;58663;52.040;4.634;2023-02-28T01:41:17;3.80;;;1.83;;
70997;SDS011;58663;52.040;4.634;2023-02-28T01:43:55;3.38;;;2.00;;
70997;SDS011;58663;52.040;4.634;2023-02-28T01:46:22;1.98;;;1.10;;
70997;SDS011;58663;52.040;4.634;2023-02-28T01:49:09;2.10;;;1.52;;
70997;SDS011;58663;52.040;4.634;2023-02-28T01:51:42;2.50;;;1.63;;
70997;SDS011;58663;52.040;4.634;2023-02-28T01:54:12;3.50;;;1.85;;
70997;SDS011;58663;52.040;4.634;2023-02-28T01:56:46;4.55;;;1.40;;
70997;SDS011;58663;52.040;4.634;2023-02-28T01:59:25;3.40;;;1.85;;
70997;SDS011;58663;52.040;4.634;2023-02-28T02:01:54;4.50;;;1.98;;
70997;SDS011;58663;52.040;4.634;2023-02-28T02:04:19;5.05;;;1.88;;
70997;SDS011;58663;52.040;4.634;2023-02-28T02:06:47;4.13;;;1.98;;
70997;SDS011;58663;52.040;4.634;2023-02-28T02:09:12;4.25;;;1.80;;
70997;SDS011;58663;52.040;4.634;2023-02-28T02:11:39;2.85;;;1.77;;
70997;SDS011;58663;52.040;4.634;2023-02-28T02:17:08;2.55;;;1.58;;
70997;SDS011;58663;52.040;4.634;2023-02-28T02:25:32;2.78;;;2.03;;
70997;SDS011;58663;52.040;4.634;2023-02-28T02:36:25;7.05;;;1.95;;
70997;SDS011;58663;52.040;4.634;2023-02-28T02:42:14;2.95;;;1.77;;
70997;SDS011;58663;52.040;4.634;2023-02-28T02:44:48;3.55;;;2.22;;
70997;SDS011;58663;52.040;4.634;2023-02-28T02:47:24;7.05;;;2.33;;
70997;SDS011;58663;52.040;4.634;2023-02-28T02:49:52;5.05;;;2.20;;
70997;SDS011;58663;52.040;4.634;2023-02-28T02:52:21;6.28;;;2.15;;
70997;SDS011;58663;52.040;4.634;2023-02-28T02:54:48;3.72;;;2.20;;
70997;SDS011;58663;52.040;4.634;2023-02-28T02:57:22;3.72;;;2.13;;
70997;SDS011;58663;52.040;4.634;2023-02-28T02:59:50;6.88;;;2.45;;
70997;SDS011;58663;52.040;4.634;2023-02-28T03:02:17;5.88;;;2.78;;
70997;SDS011;58663;52.040;4.634;2023-02-28T03:04:43;7.65;;;2.53;;
70997;SDS011;58663;52.040;4.634;2023-02-28T03:07:16;4.43;;;2.72;;
70997;SDS011;58663;52.040;4.634;2023-02-28T03:09:49;5.28;;;2.30;;
70997;SDS011;58663;52.040;4.634;2023-02-28T03:12:15;5.88;;;2.55;;
70997;SDS011;58663;52.040;4.634;2023-02-28T03:14:44;4.95;;;2.33;;
70997;SDS011;58663;52.040;4.634;2023-02-28T03:19:50;5.28;;;2.60;;
70997;SDS011;58663;52.040;4.634;2023-02-28T03:25:21;9.32;;;3.45;;
70997;SDS011;58663;52.040;4.634;2023-02-28T03:31:04;5.72;;;2.75;;
70997;SDS011;58663;52.040;4.634;2023-02-28T03:33:57;4.70;;;2.72;;
70997;SDS011;58663;52.040;4.634;2023-02-28T03:36:32;6.93;;;2.90;;
70997;SDS011;58663;52.040;4.634;2023-02-28T03:39:08;4.90;;;2.90;;
70997;SDS011;58663;52.040;4.634;2023-02-28T03:41:48;3.20;;;2.40;;
70997;SDS011;58663;52.040;4.634;2023-02-28T03:44:18;11.60;;;2.65;;
70997;SDS011;58663;52.040;4.634;2023-02-28T03:46:54;6.65;;;2.72;;
70997;SDS011;58663;52.040;4.634;2023-02-28T03:49:25;7.57;;;2.90;;
70997;SDS011;58663;52.040;4.634;2023-02-28T03:51:53;7.10;;;3.33;;
70997;SDS011;58663;52.040;4.634;2023-02-28T03:54:23;6.05;;;3.05;;
70997;SDS011;58663;52.040;4.634;2023-02-28T03:56:55;6.80;;;2.90;;
70997;SDS011;58663;52.040;4.634;2023-02-28T03:59:31;2.92;;;2.50;;
70997;SDS011;58663;52.040;4.634;2023-02-28T04:01:59;9.07;;;3.90;;
70997;SDS011;58663;52.040;4.634;2023-02-28T04:04:24;7.20;;;2.78;;
70997;SDS011;58663;52.040;4.634;2023-02-28T04:06:50;8.20;;;2.65;;
70997;SDS011;58663;52.040;4.634;2023-02-28T04:09:17;6.53;;;2.72;;
70997;SDS011;58663;52.040;4.634;2023-02-28T04:11:47;5.28;;;3.40;;
70997;SDS011;58663;52.040;4.634;2023-02-28T04:14:16;9.18;;;2.90;;
70997;SDS011;58663;52.040;4.634;2023-02-28T04:16:42;7.03;;;2.95;;
70997;SDS011;58663;52.040;4.634;2023-02-28T04:19:09;7.25;;;3.38;;
70997;SDS011;58663;52.040;4.634;2023-02-28T04:21:39;6.47;;;3.10;;
70997;SDS011;58663;52.040;4.634;2023-02-28T04:26:32;3.13;;;2.25;;
70997;SDS011;58663;52.040;4.634;2023-02-28T04:28:59;4.97;;;3.13;;
70997;SDS011;58663;52.040;4.634;2023-02-28T04:31:25;4.53;;;3.13;;
70997;SDS011;58663;52.040;4.634;2023-02-28T04:33:50;6.53;;;3.33;;
70997;SDS011;58663;52.040;4.634;2023-02-28T04:36:16;3.58;;;2.72;;
70997;SDS011;58663;52.040;4.634;2023-02-28T04:38:43;4.47;;;3.13;;
70997;SDS011;58663;52.040;4.634;2023-02-28T04:41:09;6.47;;;2.75;;
70997;SDS011;58663;52.040;4.634;2023-02-28T04:43:34;5.03;;;3.13;;
70997;SDS011;58663;52.040;4.634;2023-02-28T04:46:01;6.05;;;3.90;;
70997;SDS011;58663;52.040;4.634;2023-02-28T04:48:28;8.77;;;3.55;;
70997;SDS011;58663;52.040;4.634;2023-02-28T04:50:55;5.95;;;3.50;;
70997;SDS011;58663;52.040;4.634;2023-02-28T04:53:20;5.88;;;3.35;;
70997;SDS011;58663;52.040;4.634;2023-02-28T04:55:46;5.32;;;2.78;;
70997;SDS011;58663;52.040;4.634;2023-02-28T04:58:12;8.88;;;4.13;;
70997;SDS011;58663;52.040;4.634;2023-02-28T05:00:38;7.95;;;4.07;;
70997;SDS011;58663;52.040;4.634;2023-02-28T05:03:04;7.50;;;3.92;;
70997;SDS011;58663;52.040;4.634;2023-02-28T05:05:29;9.02;;;3.42;;
70997;SDS011;58663;52.040;4.634;2023-02-28T05:07:55;6.97;;;3.90;;
70997;SDS011;58663;52.040;4.634;2023-02-28T05:10:21;6.63;;;3.95;;
70997;SDS011;58663;52.040;4.634;2023-02-28T05:12:47;6.63;;;3.72;;
70997;SDS011;58663;52.040;4.634;2023-02-28T05:15:13;9.23;;;4.30;;
70997;SDS011;58663;52.040;4.634;2023-02-28T05:17:40;6.22;;;4.43;;
70997;SDS011;58663;52.040;4.634;2023-02-28T05:20:05;12.82;;;4.20;;
70997;SDS011;58663;52.040;4.634;2023-02-28T05:22:31;7.47;;;3.80;;
70997;SDS011;58663;52.040;4.634;2023-02-28T05:24:57;7.45;;;4.15;;
70997;SDS011;58663;52.040;4.634;2023-02-28T05:27:22;13.63;;;4.82;;
70997;SDS011;58663;52.040;4.634;2023-02-28T05:29:48;9.60;;;4.60;;
70997;SDS011;58663;52.040;4.634;2023-02-28T05:32:14;12.07;;;4.45;;
70997;SDS011;58663;52.040;4.634;2023-02-28T05:34:40;8.30;;;4.25;;
70997;SDS011;58663;52.040;4.634;2023-02-28T05:37:05;7.43;;;4.55;;
70997;SDS011;58663;52.040;4.634;2023-02-28T05:39:31;10.05;;;5.03;;
70997;SDS011;58663;52.040;4.634;2023-02-28T05:41:58;8.48;;;4.18;;
70997;SDS011;58663;52.040;4.634;2023-02-28T05:44:23;7.53;;;4.18;;
70997;SDS011;58663;52.040;4.634;2023-02-28T05:46:49;7.20;;;4.55;;
70997;SDS011;58663;52.040;4.634;2023-02-28T05:49:14;8.05;;;4.18;;
70997;SDS011;58663;52.040;4.634;2023-02-28T05:51:40;9.20;;;4.55;;
70997;SDS011;58663;52.040;4.634;2023-02-28T05:54:05;16.88;;;5.13;;
70997;SDS011;58663;52.040;4.634;2023-02-28T05:56:31;10.50;;;4.88;;
70997;SDS011;58663;52.040;4.634;2023-02-28T05:58:56;6.65;;;4.55;;
70997;SDS011;58663;52.040;4.634;2023-02-28T06:01:40;7.40;;;5.13;;
70997;SDS011;58663;52.040;4.634;2023-02-28T06:04:07;15.07;;;5.65;;
70997;SDS011;58663;52.040;4.634;2023-02-28T06:06:34;12.30;;;5.03;;
70997;SDS011;58663;52.040;4.634;2023-02-28T06:08:59;7.80;;;4.22;;
70997;SDS011;58663;52.040;4.634;2023-02-28T06:11:25;8.05;;;4.80;;
70997;SDS011;58663;52.040;4.634;2023-02-28T06:13:58;11.52;;;6.25;;
70997;SDS011;58663;52.040;4.634;2023-02-28T06:16:27;9.30;;;4.35;;
70997;SDS011;58663;52.040;4.634;2023-02-28T06:18:53;6.97;;;3.78;;
70997;SDS011;58663;52.040;4.634;2023-02-28T06:21:21;6.40;;;3.88;;
70997;SDS011;58663;52.040;4.634;2023-02-28T06:23:46;4.47;;;3.13;;
70997;SDS011;58663;52.040;4.634;2023-02-28T06:26:12;5.78;;;3.42;;
70997;SDS011;58663;52.040;4.634;2023-02-28T06:28:37;5.75;;;2.90;;
70997;SDS011;58663;52.040;4.634;2023-02-28T06:31:09;3.58;;;2.55;;
70997;SDS011;58663;52.040;4.634;2023-02-28T06:33:37;4.90;;;2.30;;
70997;SDS011;58663;52.040;4.634;2023-02-28T06:36:03;7.95;;;3.25;;
70997;SDS011;58663;52.040;4.634;2023-02-28T06:38:28;4.32;;;2.75;;
70997;SDS011;58663;52.040;4.634;2023-02-28T06:40:54;3.83;;;3.10;;
70997;SDS011;58663;52.040;4.634;2023-02-28T06:43:20;5.65;;;3.08;;
70997;SDS011;58663;52.040;4.634;2023-02-28T06:45:46;5.18;;;3.40;;
70997;SDS011;58663;52.040;4.634;2023-02-28T06:48:11;7.20;;;2.97;;
70997;SDS011;58663;52.040;4.634;2023-02-28T06:50:37;3.80;;;2.75;;
70997;SDS011;58663;52.040;4.634;2023-02-28T06:53:03;7.10;;;2.95;;
70997;SDS011;58663;52.040;4.634;2023-02-28T06:55:28;5.70;;;2.95;;
70997;SDS011;58663;52.040;4.634;2023-02-28T06:57:53;5.40;;;2.50;;
70997;SDS011;58663;52.040;4.634;2023-02-28T07:00:20;3.80;;;3.20;;
70997;SDS011;58663;52.040;4.634;2023-02-28T07:02:45;4.28;;;2.75;;
70997;SDS011;58663;52.040;4.634;2023-02-28T07:05:12;4.22;;;2.97;;
70997;SDS011;58663;52.040;4.634;2023-02-28T07:07:37;5.18;;;2.97;;
70997;SDS011;58663;52.040;4.634;2023-02-28T07:10:05;6.75;;;3.13;;
70997;SDS011;58663;52.040;4.634;2023-02-28T07:12:31;4.60;;;2.65;;
70997;SDS011;58663;52.040;4.634;2023-02-28T07:14:56;4.63;;;3.25;;
70997;SDS011;58663;52.040;4.634;2023-02-28T07:17:21;9.45;;;4.00;;
70997;SDS011;58663;52.040;4.634;2023-02-28T07:19:47;5.57;;;3.53;;
70997;SDS011;58663;52.040;4.634;2023-02-28T07:22:12;5.07;;;3.63;;
70997;SDS011;58663;52.040;4.634;2023-02-28T07:24:38;3.80;;;2.58;;
70997;SDS011;58663;52.040;4.634;2023-02-28T07:27:03;6.90;;;3.20;;
70997;SDS011;58663;52.040;4.634;2023-02-28T07:29:28;5.35;;;3.35;;
70997;SDS011;58663;52.040;4.634;2023-02-28T07:31:54;6.65;;;4.60;;
70997;SDS011;58663;52.040;4.634;2023-02-28T07:34:20;9.73;;;4.13;;
70997;SDS011;58663;52.040;4.634;2023-02-28T07:36:46;5.93;;;3.33;;
70997;SDS011;58663;52.040;4.634;2023-02-28T07:39:11;6.03;;;3.10;;
70997;SDS011;58663;52.040;4.634;2023-02-28T07:41:37;5.78;;;3.67;;
70997;SDS011;58663;52.040;4.634;2023-02-28T07:44:08;6.47;;;3.15;;
70997;SDS011;58663;52.040;4.634;2023-02-28T07:46:34;4.47;;;3.45;;
70997;SDS011;58663;52.040;4.634;2023-02-28T07:49:01;4.75;;;3.60;;
70997;SDS011;58663;52.040;4.634;2023-02-28T07:51:28;5.05;;;3.33;;
70997;SDS011;58663;52.040;4.634;2023-02-28T07:53:53;10.93;;;4.13;;
70997;SDS011;58663;52.040;4.634;2023-02-28T07:56:19;4.47;;;3.70;;
70997;SDS011;58663;52.040;4.634;2023-02-28T07:58:44;7.68;;;5.25;;
70997;SDS011;58663;52.040;4.634;2023-02-28T08:01:10;7.88;;;4.95;;
70997;SDS011;58663;52.040;4.634;2023-02-28T08:03:36;8.82;;;4.80;;
70997;SDS011;58663;52.040;4.634;2023-02-28T08:06:05;7.00;;;4.07;;
70997;SDS011;58663;52.040;4.634;2023-02-28T08:08:36;6.53;;;4.15;;
70997;SDS011;58663;52.040;4.634;2023-02-28T08:11:02;6.57;;;4.38;;
70997;SDS011;58663;52.040;4.634;2023-02-28T08:13:28;7.47;;;4.45;;
70997;SDS011;58663;52.040;4.634;2023-02-28T08:15:54;7.65;;;4.55;;
70997;SDS011;58663;52.040;4.634;2023-02-28T08:18:20;5.50;;;4.05;;
70997;SDS011;58663;52.040;4.634;2023-02-28T08:20:46;5.85;;;4.10;;
70997;SDS011;58663;52.040;4.634;2023-02-28T08:23:12;6.38;;;4.35;;
70997;SDS011;58663;52.040;4.634;2023-02-28T08:25:37;6.57;;;4.35;;
70997;SDS011;58663;52.040;4.634;2023-02-28T08:28:03;6.78;;;4.85;;
70997;SDS011;58663;52.040;4.634;2023-02-28T08:30:28;9.15;;;4.00;;
70997;SDS011;58663;52.040;4.634;2023-02-28T08:32:53;8.27;;;3.90;;
70997;SDS011;58663;52.040;4.634;2023-02-28T08:35:20;5.35;;;3.97;;
70997;SDS011;58663;52.040;4.634;2023-02-28T08:37:47;6.55;;;4.47;;
70997;SDS011;58663;52.040;4.634;2023-02-28T08:40:13;7.75;;;4.90;;
70997;SDS011;58663;52.040;4.634;2023-02-28T08:42:43;7.68;;;4.55;;
70997;SDS011;58663;52.040;4.634;2023-02-28T08:45:11;11.57;;;5.20;;
70997;SDS011;58663;52.040;4.634;2023-02-28T08:47:37;8.70;;;5.05;;
70997;SDS011;58663;52.040;4.634;2023-02-28T08:50:03;9.02;;;5.07;;
70997;SDS011;58663;52.040;4.634;2023-02-28T08:52:29;12.85;;;5.00;;
70997;SDS011;58663;52.040;4.634;2023-02-28T08:54:54;7.72;;;4.63;;
70997;SDS011;58663;52.040;4.634;2023-02-28T08:57:20;7.88;;;4.50;;
70997;SDS011;58663;52.040;4.634;2023-02-28T08:59:45;11.70;;;4.50;;
70997;SDS011;58663;52.040;4.634;2023-02-28T09:02:13;7.80;;;5.28;;
70997;SDS011;58663;52.040;4.634;2023-02-28T09:04:39;13.38;;;5.10;;
70997;SDS011;58663;52.040;4.634;2023-02-28T09:07:05;8.35;;;5.50;;
70997;SDS011;58663;52.040;4.634;2023-02-28T09:09:30;6.32;;;4.40;;
70997;SDS011;58663;52.040;4.634;2023-02-28T09:11:56;5.68;;;4.20;;
70997;SDS011;58663;52.040;4.634;2023-02-28T09:14:21;7.85;;;4.68;;
70997;SDS011;58663;52.040;4.634;2023-02-28T09:16:46;6.32;;;4.35;;
70997;SDS011;58663;52.040;4.634;2023-02-28T09:19:12;7.97;;;4.45;;
70997;SDS011;58663;52.040;4.634;2023-02-28T09:21:37;6.07;;;4.40;;
70997;SDS011;58663;52.040;4.634;2023-02-28T09:24:03;6.47;;;4.20;;
70997;SDS011;58663;52.040;4.634;2023-02-28T09:26:28;12.23;;;5.18;;
70997;SDS011;58663;52.040;4.634;2023-02-28T09:28:54;9.88;;;4.85;;
70997;SDS011;58663;52.040;4.634;2023-02-28T09:31:21;6.13;;;4.13;;
70997;SDS011;58663;52.040;4.634;2023-02-28T09:33:49;6.85;;;4.53;;
70997;SDS011;58663;52.040;4.634;2023-02-28T09:36:16;20.75;;;11.82;;
70997;SDS011;58663;52.040;4.634;2023-02-28T09:38:41;16.15;;;7.32;;
70997;SDS011;58663;52.040;4.634;2023-02-28T09:41:17;11.73;;;6.97;;
70997;SDS011;58663;52.040;4.634;2023-02-28T09:43:47;8.35;;;5.20;;
70997;SDS011;58663;52.040;4.634;2023-02-28T09:49:22;10.75;;;5.97;;
70997;SDS011;58663;52.040;4.634;2023-02-28T09:51:59;12.98;;;8.50;;
70997;SDS011;58663;52.040;4.634;2023-02-28T09:54:28;8.75;;;6.05;;
70997;SDS011;58663;52.040;4.634;2023-02-28T09:56:56;13.73;;;6.20;;
70997;SDS011;58663;52.040;4.634;2023-02-28T09:59:49;8.20;;;4.93;;
70997;SDS011;58663;52.040;4.634;2023-02-28T10:08:23;9.00;;;3.83;;
70997;SDS011;58663;52.040;4.634;2023-02-28T10:10:53;7.97;;;4.32;;
70997;SDS011;58663;52.040;4.634;2023-02-28T10:16:05;5.75;;;3.55;;
70997;SDS011;58663;52.040;4.634;2023-02-28T10:18:37;7.20;;;5.45;;
70997;SDS011;58663;52.040;4.634;2023-02-28T10:21:09;5.43;;;3.47;;
70997;SDS011;58663;52.040;4.634;2023-02-28T10:23:41;6.28;;;4.50;;
70997;SDS011;58663;52.040;4.634;2023-02-28T10:26:12;7.28;;;3.97;;
70997;SDS011;58663;52.040;4.634;2023-02-28T10:28:38;7.65;;;4.88;;
70997;SDS011;58663;52.040;4.634;2023-02-28T10:31:04;8.63;;;4.80;;
70997;SDS011;58663;52.040;4.634;2023-02-28T10:33:30;5.00;;;3.25;;
70997;SDS011;58663;52.040;4.634;2023-02-28T10:36:02;4.90;;;3.08;;
70997;SDS011;58663;52.040;4.634;2023-02-28T10:38:35;5.90;;;3.15;;
70997;SDS011;58663;52.040;4.634;2023-02-28T10:43:34;12.48;;;4.28;;
70997;SDS011;58663;52.040;4.634;2023-02-28T10:46:09;7.65;;;4.30;;
70997;SDS011;58663;52.040;4.634;2023-02-28T10:51:13;8.13;;;3.72;;
70997;SDS011;58663;52.040;4.634;2023-02-28T10:53:45;14.77;;;6.13;;
70997;SDS011;58663;52.040;4.634;2023-02-28T10:56:20;6.05;;;4.18;;
70997;SDS011;58663;52.040;4.634;2023-02-28T11:03:57;15.25;;;8.18;;
70997;SDS011;58663;52.040;4.634;2023-02-28T11:06:32;9.35;;;4.65;;
70997;SDS011;58663;52.040;4.634;2023-02-28T11:08:59;7.13;;;4.95;;
70997;SDS011;58663;52.040;4.634;2023-02-28T11:11:28;5.38;;;3.83;;
70997;SDS011;58663;52.040;4.634;2023-02-28T11:13:58;6.68;;;2.70;;
70997;SDS011;58663;52.040;4.634;2023-02-28T11:16:35;4.03;;;3.35;;
70997;SDS011;58663;52.040;4.634;2023-02-28T11:19:02;3.95;;;2.88;;
70997;SDS011;58663;52.040;4.634;2023-02-28T11:21:30;3.83;;;2.88;;
70997;SDS011;58663;52.040;4.634;2023-02-28T11:24:44;6.57;;;3.53;;
70997;SDS011;58663;52.040;4.634;2023-02-28T11:26:53;5.68;;;2.97;;
70997;SDS011;58663;52.040;4.634;2023-02-28T11:29:20;5.32;;;2.83;;
70997;SDS011;58663;52.040;4.634;2023-02-28T11:34:29;3.15;;;2.38;;
70997;SDS011;58663;52.040;4.634;2023-02-28T11:36:56;6.10;;;4.47;;
70997;SDS011;58663;52.040;4.634;2023-02-28T11:39:22;6.10;;;2.72;;
70997;SDS011;58663;52.040;4.634;2023-02-28T11:55:24;6.47;;;4.63;;
70997;SDS011;58663;52.040;4.634;2023-02-28T12:00:39;4.05;;;2.63;;
70997;SDS011;58663;52.040;4.634;2023-02-28T12:06:08;7.82;;;4.78;;
70997;SDS011;58663;52.040;4.634;2023-02-28T12:09:04;3.08;;;2.45;;
70997;SDS011;58663;52.040;4.634;2023-02-28T12:17:17;2.78;;;2.58;;
70997;SDS011;58663;52.040;4.634;2023-02-28T12:20:12;5.85;;;3.72;;
70997;SDS011;58663;52.040;4.634;2023-02-28T12:28:13;3.05;;;2.38;;
70997;SDS011;58663;52.040;4.634;2023-02-28T12:30:51;3.15;;;2.35;;
70997;SDS011;58663;52.040;4.634;2023-02-28T12:33:21;5.28;;;3.05;;
70997;SDS011;58663;52.040;4.634;2023-02-28T12:35:52;3.55;;;2.60;;
70997;SDS011;58663;52.040;4.634;2023-02-28T12:38:40;2.38;;;1.92;;
70997;SDS011;58663;52.040;4.634;2023-02-28T12:41:19;6.90;;;3.55;;
70997;SDS011;58663;52.040;4.634;2023-02-28T12:43:49;5.03;;;2.30;;
70997;SDS011;58663;52.040;4.634;2023-02-28T12:46:25;4.15;;;2.55;;
70997;SDS011;58663;52.040;4.634;2023-02-28T12:48:55;2.63;;;2.00;;
70997;SDS011;58663;52.040;4.634;2023-02-28T12:51:22;2.75;;;2.05;;
70997;SDS011;58663;52.040;4.634;2023-02-28T13:00:00;3.72;;;2.97;;
70997;SDS011;58663;52.040;4.634;2023-02-28T13:10:55;2.33;;;1.95;;
70997;SDS011;58663;52.040;4.634;2023-02-28T13:13:22;6.82;;;2.15;;
70997;SDS011;58663;52.040;4.634;2023-02-28T13:18:39;2.92;;;2.13;;
70997;SDS011;58663;52.040;4.634;2023-02-28T13:21:08;4.72;;;2.20;;
70997;SDS011;58663;52.040;4.634;2023-02-28T13:23:39;3.58;;;2.30;;
70997;SDS011;58663;52.040;4.634;2023-02-28T13:26:06;6.28;;;3.05;;
70997;SDS011;58663;52.040;4.634;2023-02-28T13:31:15;4.70;;;2.53;;
70997;SDS011;58663;52.040;4.634;2023-02-28T13:38:58;2.95;;;2.03;;
70997;SDS011;58663;52.040;4.634;2023-02-28T13:46:32;3.30;;;2.30;;
70997;SDS011;58663;52.040;4.634;2023-02-28T14:00:13;2.67;;;1.98;;
70997;SDS011;58663;52.040;4.634;2023-02-28T14:02:55;2.55;;;1.98;;
70997;SDS011;58663;52.040;4.634;2023-02-28T14:05:31;3.35;;;2.47;;
70997;SDS011;58663;52.040;4.634;2023-02-28T14:07:58;3.38;;;2.30;;
70997;SDS011;58663;52.040;4.634;2023-02-28T14:18:14;2.33;;;1.92;;
70997;SDS011;58663;52.040;4.634;2023-02-28T14:20:47;2.63;;;2.13;;
70997;SDS011;58663;52.040;4.634;2023-02-28T14:32:02;7.45;;;2.30;;
70997;SDS011;58663;52.040;4.634;2023-02-28T14:37:01;8.15;;;3.45;;
70997;SDS011;58663;52.040;4.634;2023-02-28T14:39:27;3.47;;;2.38;;
70997;SDS011;58663;52.040;4.634;2023-02-28T14:41:55;3.10;;;2.22;;
70997;SDS011;58663;52.040;4.634;2023-02-28T14:44:24;5.90;;;3.83;;
70997;SDS011;58663;52.040;4.634;2023-02-28T14:46:55;3.13;;;2.10;;
70997;SDS011;58663;52.040;4.634;2023-02-28T14:49:29;2.72;;;2.17;;
70997;SDS011;58663;52.040;4.634;2023-02-28T14:52:21;4.85;;;2.15;;
70997;SDS011;58663;52.040;4.634;2023-02-28T14:54:52;4.47;;;2.20;;
70997;SDS011;58663;52.040;4.634;2023-02-28T15:02:25;8.52;;;3.35;;
70997;SDS011;58663;52.040;4.634;2023-02-28T15:04:58;6.20;;;2.90;;
70997;SDS011;58663;52.040;4.634;2023-02-28T15:07:25;4.35;;;2.53;;
70997;SDS011;58663;52.040;4.634;2023-02-28T15:10:10;4.22;;;2.35;;
70997;SDS011;58663;52.040;4.634;2023-02-28T15:12:39;3.25;;;2.72;;
70997;SDS011;58663;52.040;4.634;2023-02-28T15:15:06;2.35;;;1.85;;
70997;SDS011;58663;52.040;4.634;2023-02-28T15:17:38;2.63;;;1.95;;
70997;SDS011;58663;52.040;4.634;2023-02-28T15:20:04;2.22;;;2.00;;
70997;SDS011;58663;52.040;4.634;2023-02-28T15:22:31;2.90;;;2.53;;
70997;SDS011;58663;52.040;4.634;2023-02-28T15:25:00;5.35;;;4.05;;
70997;SDS011;58663;52.040;4.634;2023-02-28T15:27:29;4.88;;;2.38;;
70997;SDS011;58663;52.040;4.634;2023-02-28T15:30:00;4.85;;;3.30;;
70997;SDS011;58663;52.040;4.634;2023-02-28T15:32:31;4.07;;;2.25;;
70997;SDS011;58663;52.040;4.634;2023-02-28T15:34:59;3.70;;;3.05;;
70997;SDS011;58663;52.040;4.634;2023-02-28T15:37:56;5.60;;;2.17;;
70997;SDS011;58663;52.040;4.634;2023-02-28T15:40:30;4.70;;;2.47;;
70997;SDS011;58663;52.040;4.634;2023-02-28T15:43:12;3.35;;;1.90;;
70997;SDS011;58663;52.040;4.634;2023-02-28T15:48:11;4.57;;;2.53;;
70997;SDS011;58663;52.040;4.634;2023-02-28T15:50:39;2.70;;;2.22;;
70997;SDS011;58663;52.040;4.634;2023-02-28T15:53:05;3.20;;;2.78;;
70997;SDS011;58663;52.040;4.634;2023-02-28T15:55:38;2.75;;;2.10;;
70997;SDS011;58663;52.040;4.634;2023-02-28T15:58:04;3.42;;;2.35;;
70997;SDS011;58663;52.040;4.634;2023-02-28T16:00:31;3.20;;;2.13;;
70997;SDS011;58663;52.040;4.634;2023-02-28T16:02:57;3.42;;;2.55;;
70997;SDS011;58663;52.040;4.634;2023-02-28T16:08:00;5.18;;;2.92;;
70997;SDS011;58663;52.040;4.634;2023-02-28T16:10:27;7.07;;;3.28;;
70997;SDS011;58663;52.040;4.634;2023-02-28T16:12:54;4.53;;;2.60;;
70997;SDS011;58663;52.040;4.634;2023-02-28T16:15:22;5.65;;;2.67;;
70997;SDS011;58663;52.040;4.634;2023-02-28T16:20:17;3.93;;;2.30;;
70997;SDS011;58663;52.040;4.634;2023-02-28T16:22:44;4.13;;;2.60;;
70997;SDS011;58663;52.040;4.634;2023-02-28T16:25:13;5.50;;;2.45;;
70997;SDS011;58663;52.040;4.634;2023-02-28T16:27:43;4.35;;;2.70;;
70997;SDS011;58663;52.040;4.634;2023-02-28T16:30:16;3.78;;;2.42;;
70997;SDS011;58663;52.040;4.634;2023-02-28T16:32:45;6.93;;;2.70;;
70997;SDS011;58663;52.040;4.634;2023-02-28T16:35:10;3.58;;;2.45;;
70997;SDS011;58663;52.040;4.634;2023-02-28T16:37:36;3.85;;;2.50;;
70997;SDS011;58663;52.040;4.634;2023-02-28T16:40:02;4.68;;;2.90;;
70997;SDS011;58663;52.040;4.634;2023-02-28T16:42:28;4.75;;;2.60;;
70997;SDS011;58663;52.040;4.634;2023-02-28T16:44:54;3.95;;;2.97;;
70997;SDS011;58663;52.040;4.634;2023-02-28T16:47:20;4.28;;;2.97;;
70997;SDS011;58663;52.040;4.634;2023-02-28T16:49:45;3.25;;;2.80;;
70997;SDS011;58663;52.040;4.634;2023-02-28T16:52:12;4.28;;;3.10;;
70997;SDS011;58663;52.040;4.634;2023-02-28T16:54:38;4.25;;;2.95;;
70997;SDS011;58663;52.040;4.634;2023-02-28T16:57:04;3.60;;;2.80;;
70997;SDS011;58663;52.040;4.634;2023-02-28T16:59:31;4.60;;;3.38;;
70997;SDS011;58663;52.040;4.634;2023-02-28T17:01:57;5.15;;;3.30;;
70997;SDS011;58663;52.040;4.634;2023-02-28T17:04:23;3.80;;;2.95;;
70997;SDS011;58663;52.040;4.634;2023-02-28T17:06:49;4.05;;;2.95;;
70997;SDS011;58663;52.040;4.634;2023-02-28T17:09:16;4.57;;;2.88;;
70997;SDS011;58663;52.040;4.634;2023-02-28T17:11:44;7.68;;;3.15;;
70997;SDS011;58663;52.040;4.634;2023-02-28T17:14:09;3.15;;;2.58;;
70997;SDS011;58663;52.040;4.634;2023-02-28T17:16:35;3.60;;;2.60;;
70997;SDS011;58663;52.040;4.634;2023-02-28T17:19:03;5.43;;;3.25;;
70997;SDS011;58663;52.040;4.634;2023-02-28T17:21:30;3.42;;;2.83;;
70997;SDS011;58663;52.040;4.634;2023-02-28T17:23:56;6.07;;;3.25;;
70997;SDS011;58663;52.040;4.634;2023-02-28T17:26:22;6.20;;;2.90;;
70997;SDS011;58663;52.040;4.634;2023-02-28T17:28:52;4.45;;;3.40;;
70997;SDS011;58663;52.040;4.634;2023-02-28T17:31:20;5.43;;;3.35;;
70997;SDS011;58663;52.040;4.634;2023-02-28T17:33:45;3.40;;;2.90;;